Time;durP1;ratioP1;P1;durP2;ratioP2;P2;SDS_P1;SDS_P2;PMS_P1;PMS_P2;Temp;Humidity;BMP_temperature;BMP_pressure;BME280_temperature;BME280_humidity;BME280_pressure;Samples;Min_cycle;Max_cycle;Signal;HPM_P1;HPM_P2
2022/10/16 00:01:24;;;;;;;7.68;3.45;;;;;;;16.45;62.28;100949.84;4933289;28;118962;-71
2022/10/16 00:03:51;;;;;;;7.25;3.30;;;;;;;16.46;62.43;100964.94;4931612;28;123499;-71
2022/10/16 00:06:20;;;;;;;6.53;3.58;;;;;;;16.46;62.32;100956.03;4947405;28;123514;-72
2022/10/16 00:08:49;;;;;;;7.97;3.45;;;;;;;16.46;62.43;100950.69;4966294;28;120088;-71
2022/10/16 00:11:21;;;;;;;7.00;3.53;;;;;;;16.47;62.49;100953.28;4949555;28;119616;-72
2022/10/16 00:13:50;;;;;;;6.32;3.55;;;;;;;16.47;62.61;100953.28;4948643;28;123202;-72
2022/10/16 00:16:18;;;;;;;4.88;3.50;;;;;;;16.47;62.71;100947.94;4964071;28;124239;-71
2022/10/16 00:18:46;;;;;;;6.63;3.85;;;;;;;16.49;62.72;100943.31;4964237;28;119288;-72
2022/10/16 00:21:19;;;;;;;11.82;3.70;;;;;;;16.50;62.68;100947.72;4966522;28;118888;-71
2022/10/16 00:23:46;;;;;;;6.18;3.28;;;;;;;16.52;62.92;100945.81;4964687;28;124851;-72
2022/10/16 00:26:16;;;;;;;5.03;3.55;;;;;;;16.52;62.70;100940.47;4966466;28;124730;-72
2022/10/16 00:28:49;;;;;;;9.57;3.30;;;;;;;16.51;62.74;100954.78;4947857;28;119589;-72
2022/10/16 00:31:17;;;;;;;5.50;3.30;;;;;;;16.54;62.72;100954.56;4965983;28;118483;-72
2022/10/16 00:33:44;;;;;;;5.68;3.05;;;;;;;16.53;62.78;100952.84;4965046;28;124078;-71
2022/10/16 00:36:14;;;;;;;6.55;3.30;;;;;;;16.53;62.64;100958.19;4965655;28;123599;-72
2022/10/16 00:38:41;;;;;;;7.75;3.03;;;;;;;16.54;62.65;100948.38;4964342;28;119034;-72
2022/10/16 00:41:15;;;;;;;7.20;3.08;;;;;;;16.52;62.68;100951.16;4965688;28;119002;-71
2022/10/16 00:43:44;;;;;;;5.32;2.97;;;;;;;16.53;62.76;100952.84;4960700;28;124010;-72
2022/10/16 00:46:14;;;;;;;5.63;2.80;;;;;;;16.51;62.62;100949.41;4947275;28;124717;-71
2022/10/16 00:48:45;;;;;;;5.20;2.97;;;;;;;16.49;62.59;100951.34;4964307;28;120506;-71
2022/10/16 00:51:13;;;;;;;4.95;2.85;;;;;;;16.50;62.70;100947.72;4944221;28;117696;-71
2022/10/16 00:53:40;;;;;;;6.88;2.80;;;;;;;16.48;62.88;100955.00;4966629;28;124219;-71
2022/10/16 00:56:07;;;;;;;3.38;2.70;;;;;;;16.48;62.81;100960.34;4966281;28;124692;-71
2022/10/16 00:58:34;;;;;;;4.43;2.78;;;;;;;16.48;62.63;100956.78;4963597;28;120114;-71
2022/10/16 01:01:01;;;;;;;6.03;2.72;;;;;;;16.47;62.77;100958.63;4945804;28;120320;-71
2022/10/16 01:03:36;;;;;;;4.13;2.60;;;;;;;16.46;62.81;100962.28;4942121;28;124877;-71
2022/10/16 01:06:44;;;;;;;4.80;2.85;;;;;;;16.45;62.72;100954.34;4940518;28;124639;-71
2022/10/16 01:09:16;;;;;;;6.88;2.78;;;;;;;16.45;62.72;100955.19;4920767;28;119070;-71
2022/10/16 01:12:14;;;;;;;7.35;2.75;;;;;;;16.44;62.91;100956.16;4964017;28;118988;-71
2022/10/16 01:15:04;;;;;;;3.55;2.58;;;;;;;16.42;62.81;100944.69;4964629;28;124408;-71
2022/10/16 01:17:42;;;;;;;6.05;2.50;;;;;;;16.43;62.81;100941.09;4963154;28;123986;-71
2022/10/16 01:20:34;;;;;;;4.07;2.45;;;;;;;16.42;62.89;100944.69;4962964;28;119232;-71
2022/10/16 01:23:14;;;;;;;6.20;2.70;;;;;;;16.44;63.12;100942.78;4965043;28;119021;-71
2022/10/16 01:26:13;;;;;;;5.80;2.70;;;;;;;16.42;62.78;100944.69;4947549;28;123808;-71
2022/10/16 01:28:52;;;;;;;5.75;2.40;;;;;;;16.40;62.82;100941.28;4942996;28;124282;-71
2022/10/16 01:31:24;;;;;;;4.25;2.40;;;;;;;16.43;63.00;100954.44;4963229;28;120299;-71
2022/10/16 01:33:59;;;;;;;3.85;2.60;;;;;;;16.43;63.00;100950.94;4947880;28;118331;-71
2022/10/16 01:36:28;;;;;;;;;;;;;;;16.42;62.85;100958.06;4943565;28;123096;-71
2022/10/16 01:39:00;;;;;;;4.35;2.30;;;;;;;16.45;62.82;100959.69;4966026;28;124007;-71
2022/10/16 01:41:33;;;;;;;5.65;2.50;;;;;;;16.45;62.87;100947.19;4965386;28;119473;-71
2022/10/16 01:44:11;;;;;;;4.50;2.45;;;;;;;16.45;63.05;100949.84;4944548;28;118864;-71
2022/10/16 01:46:42;;;;;;;4.50;2.25;;;;;;;16.47;63.12;100941.72;4967662;28;123679;-71
2022/10/16 01:49:11;;;;;;;4.85;2.05;;;;;;;16.49;63.02;100945.16;4966336;28;125298;-71
2022/10/16 01:51:39;;;;;;;3.65;2.30;;;;;;;16.51;62.94;100954.78;4968353;28;119717;-71
2022/10/16 01:54:08;;;;;;;3.38;2.40;;;;;;;16.52;63.15;100961.00;4969859;28;119503;-71
2022/10/16 01:56:36;;;;;;;3.28;2.50;;;;;;;16.54;63.23;100959.91;4950423;28;124112;-71
2022/10/16 01:59:09;;;;;;;4.65;2.72;;;;;;;16.54;63.14;100959.91;4966010;28;123614;-71
2022/10/16 02:01:40;;;;;;;8.05;2.60;;;;;;;16.57;63.08;100958.00;4949342;28;119116;-71
2022/10/16 02:04:14;;;;;;;6.35;2.47;;;;;;;16.59;62.95;100956.06;4967599;28;118827;-71
2022/10/16 02:06:41;;;;;;;3.33;2.10;;;;;;;16.59;63.09;100964.09;4965819;28;124506;-71
2022/10/16 02:09:08;;;;;;;3.42;2.17;;;;;;;16.61;63.07;100959.50;4951320;28;124620;-71
2022/10/16 02:11:35;;;;;;;3.38;2.20;;;;;;;16.64;63.25;100959.28;4951294;28;118623;-71
2022/10/16 02:14:06;;;;;;;3.90;2.33;;;;;;;16.64;63.17;100959.28;4968881;28;119367;-71
2022/10/16 02:16:45;;;;;;;3.70;2.10;;;;;;;16.67;63.28;100964.41;4968449;28;124451;-71
2022/10/16 02:19:14;;;;;;;4.00;2.13;;;;;;;16.69;63.12;100968.72;4947029;28;124062;-71
2022/10/16 02:21:49;;;;;;;2.65;1.90;;;;;;;16.71;63.09;100972.13;4966239;28;119913;-71
2022/10/16 02:24:51;;;;;;;3.83;2.10;;;;;;;16.73;63.00;100969.38;4947465;28;119295;-71
2022/10/16 02:27:36;;;;;;;4.45;2.00;;;;;;;16.74;62.90;100971.06;4944654;28;124745;-71
2022/10/16 02:30:35;;;;;;;3.97;1.90;;;;;;;16.75;62.96;100964.75;4967363;28;123906;-71
2022/10/16 02:33:06;;;;;;;6.63;2.10;;;;;;;16.77;62.89;100960.16;4966119;28;119193;-71
2022/10/16 02:35:34;;;;;;;3.80;1.80;;;;;;;16.78;62.74;100956.50;4969264;28;119339;-71
2022/10/16 02:38:02;;;;;;;3.33;2.17;;;;;;;16.79;62.75;100952.03;4968274;28;123148;-70
2022/10/16 02:40:29;;;;;;;3.70;1.92;;;;;;;16.80;62.73;100949.25;4968099;28;123897;-71
2022/10/16 02:42:56;;;;;;;3.25;2.08;;;;;;;16.78;62.58;100956.50;4950426;28;120878;-71
2022/10/16 02:45:24;;;;;;;4.97;1.80;;;;;;;16.78;62.57;100955.66;4964963;28;120322;-71
2022/10/16 02:47:51;;;;;;;3.00;2.13;;;;;;;16.76;62.68;100960.25;4950951;28;124449;-71
2022/10/16 02:50:18;;;;;;;3.25;1.77;;;;;;;16.74;62.55;100965.72;4968064;28;124011;-70
2022/10/16 02:52:45;;;;;;;5.25;2.13;;;;;;;16.73;62.45;100969.38;4950449;28;119558;-71
2022/10/16 02:55:12;;;;;;;3.33;1.70;;;;;;;16.71;62.51;100971.28;4949071;28;118153;-70
2022/10/16 02:57:40;;;;;;;3.03;1.85;;;;;;;16.70;62.46;100962.38;4946728;28;123766;-70
2022/10/16 03:00:09;;;;;;;3.45;1.80;;;;;;;16.69;62.35;100962.50;4967117;28;124201;-70
2022/10/16 03:02:36;;;;;;;3.58;2.17;;;;;;;16.67;62.51;100954.59;4967472;28;119146;-70
2022/10/16 03:05:05;;;;;;;3.80;2.13;;;;;;;16.65;62.47;100955.63;4964407;28;117934;-70
2022/10/16 03:07:32;;;;;;;5.20;2.00;;;;;;;16.62;62.50;100934.47;4963778;28;123753;-69
2022/10/16 03:10:02;;;;;;;5.47;1.90;;;;;;;16.61;62.43;100938.09;4967048;28;123751;-70
2022/10/16 03:12:29;;;;;;;3.75;2.03;;;;;;;16.59;62.39;100956.06;4967306;28;119713;-71
2022/10/16 03:14:56;;;;;;;4.28;1.90;;;;;;;16.59;62.42;100964.09;4950270;28;119165;-71
2022/10/16 03:17:24;;;;;;;2.42;1.75;;;;;;;16.58;62.57;100970.41;4948841;28;123787;-71
2022/10/16 03:19:52;;;;;;;6.05;1.88;;;;;;;16.55;62.45;100969.63;4949459;28;123522;-71
2022/10/16 03:22:19;;;;;;;3.80;2.17;;;;;;;16.55;62.49;100982.16;4967540;28;119129;-71
2022/10/16 03:24:46;;;;;;;3.22;2.10;;;;;;;16.52;62.58;100977.88;4968089;28;119815;-71
2022/10/16 03:27:13;;;;;;;3.05;2.15;;;;;;;16.49;62.43;100972.75;4967305;28;124020;-71
2022/10/16 03:29:40;;;;;;;3.50;2.10;;;;;;;16.49;62.51;100978.09;4967308;28;124096;-71
2022/10/16 03:32:07;;;;;;;2.78;1.80;;;;;;;16.47;62.58;100990.69;4966965;28;120183;-71
2022/10/16 03:34:34;;;;;;;4.35;2.10;;;;;;;16.46;62.47;100989.00;4946712;28;119935;-71
2022/10/16 03:37:01;;;;;;;4.38;1.98;;;;;;;16.45;62.44;100995.31;4962288;28;123040;-71
2022/10/16 03:39:28;;;;;;;5.45;2.10;;;;;;;16.42;62.64;101000.84;4967070;28;124737;-71
2022/10/16 03:41:55;;;;;;;3.75;1.90;;;;;;;16.41;62.65;100999.16;4965001;28;119068;-71
2022/10/16 03:44:22;;;;;;;2.92;1.90;;;;;;;16.41;62.64;101001.81;4965835;28;119597;-71
2022/10/16 03:46:49;;;;;;;3.50;2.00;;;;;;;16.40;62.63;101005.44;4967117;28;124820;-71
2022/10/16 03:49:16;;;;;;;3.53;2.15;;;;;;;16.40;62.48;101004.59;4949818;28;123973;-71
2022/10/16 03:51:43;;;;;;;2.70;1.85;;;;;;;16.38;62.40;100998.50;4966246;28;119127;-71
2022/10/16 03:54:10;;;;;;;4.80;2.00;;;;;;;16.37;62.78;101000.31;4951107;28;117557;-71
2022/10/16 03:56:38;;;;;;;4.10;1.95;;;;;;;16.36;62.70;101003.94;4967116;28;125382;-71
2022/10/16 03:59:05;;;;;;;2.70;1.80;;;;;;;16.35;62.76;101007.59;4967361;28;123812;-71
2022/10/16 04:01:32;;;;;;;2.97;1.92;;;;;;;16.33;62.67;101006.81;4966512;28;119351;-72
2022/10/16 04:03:59;;;;;;;5.95;2.25;;;;;;;16.33;62.66;101009.47;4968195;28;118983;-72
2022/10/16 04:06:26;;;;;;;7.18;2.13;;;;;;;16.31;62.93;101000.69;4949063;28;124143;-71
2022/10/16 04:08:53;;;;;;;3.38;1.98;;;;;;;16.28;62.69;101007.13;4966713;28;123852;-71
2022/10/16 04:11:20;;;;;;;3.70;2.20;;;;;;;16.26;62.87;100997.50;4967090;28;120025;-72
2022/10/16 04:13:47;;;;;;;7.07;1.90;;;;;;;16.25;62.85;101011.81;4933236;28;117934;-71
2022/10/16 04:16:14;;;;;;;3.05;1.77;;;;;;;16.23;62.90;101013.72;4967259;28;123787;-72
2022/10/16 04:18:41;;;;;;;3.33;1.83;;;;;;;16.22;63.10;101001.31;4964827;28;123756;-71
2022/10/16 04:21:08;;;;;;;3.65;2.08;;;;;;;16.22;63.11;101012.00;4966127;28;120575;-71
2022/10/16 04:23:35;;;;;;;3.50;1.75;;;;;;;16.21;63.11;101011.16;4932311;28;119516;-71
2022/10/16 04:26:02;;;;;;;2.53;1.67;;;;;;;16.21;63.21;101011.16;4966861;28;123972;-71
2022/10/16 04:28:29;;;;;;;4.85;2.00;;;;;;;16.22;63.18;101012.00;4964947;28;124580;-71
2022/10/16 04:30:57;;;;;;;2.63;1.95;;;;;;;16.21;63.07;101021.84;4966741;28;119280;-71
2022/10/16 04:33:24;;;;;;;3.53;1.83;;;;;;;16.21;63.15;101026.34;4966957;28;119556;-71
2022/10/16 04:35:58;;;;;;;4.57;1.90;;;;;;;16.22;63.34;101022.69;4948811;28;124201;-71
2022/10/16 04:38:25;;;;;;;2.92;1.88;;;;;;;16.21;63.29;101021.00;4962994;28;123710;-71
2022/10/16 04:40:53;;;;;;;3.35;1.85;;;;;;;16.23;63.39;101021.75;4966415;28;119282;-71
2022/10/16 04:43:20;;;;;;;4.45;2.00;;;;;;;16.22;63.38;101018.22;4966394;28;119318;-71
2022/10/16 04:45:50;;;;;;;4.95;1.73;;;;;;;16.22;63.20;101023.56;4965556;28;124013;-71
2022/10/16 04:48:18;;;;;;;4.72;1.77;;;;;;;16.24;63.37;101031.50;4947146;28;124547;-71
2022/10/16 04:50:45;;;;;;;4.57;1.92;;;;;;;16.24;63.21;101032.34;4948884;28;119673;-71
2022/10/16 04:53:20;;;;;;;6.82;2.05;;;;;;;16.24;63.01;101037.69;4948492;28;118165;-71
2022/10/16 04:55:47;;;;;;;2.47;1.77;;;;;;;16.25;63.21;101027.84;4965907;28;124621;-71
2022/10/16 04:58:14;;;;;;;3.08;1.77;;;;;;;16.24;63.33;101039.50;4946091;28;123666;-71
2022/10/16 05:00:41;;;;;;;9.23;1.80;;;;;;;16.24;63.37;101048.38;4948826;28;119376;-71
2022/10/16 05:03:08;;;;;;;3.40;2.00;;;;;;;16.24;63.40;101047.53;4949621;28;121394;-71
2022/10/16 05:05:36;;;;;;;2.90;1.80;;;;;;;16.24;63.30;101048.38;4947754;28;122390;-71
2022/10/16 05:08:03;;;;;;;4.40;1.98;;;;;;;16.23;63.26;101052.00;4964402;28;123367;-71
2022/10/16 05:10:31;;;;;;;4.38;2.22;;;;;;;16.24;63.50;101052.88;4963345;28;120025;-70
2022/10/16 05:12:58;;;;;;;4.60;1.80;;;;;;;16.24;63.42;101052.88;4931323;28;119704;-71
2022/10/16 05:15:25;;;;;;;4.43;2.08;;;;;;;16.23;63.45;101053.81;4965423;28;124073;-71
2022/10/16 05:17:53;;;;;;;3.00;1.83;;;;;;;16.23;63.48;101061.84;4963733;28;124160;-71
2022/10/16 05:20:21;;;;;;;4.30;1.90;;;;;;;16.23;63.32;101059.16;4947010;28;118254;-71
2022/10/16 05:22:48;;;;;;;2.92;2.03;;;;;;;16.22;63.32;101060.09;4946324;28;117826;-71
2022/10/16 05:25:16;;;;;;;3.47;2.10;;;;;;;16.21;63.55;101069.09;4965005;28;124776;-71
2022/10/16 05:27:43;;;;;;;4.05;1.90;;;;;;;16.21;63.53;101074.44;4948187;28;123718;-71
2022/10/16 05:30:10;;;;;;;3.35;1.90;;;;;;;16.21;63.55;101069.94;4962494;28;118903;-71
2022/10/16 05:32:38;;;;;;;2.88;1.95;;;;;;;16.20;63.41;101078.06;4947883;28;119096;-71
2022/10/16 05:35:05;;;;;;;3.67;2.20;;;;;;;16.20;63.48;101083.41;4946727;28;122811;-70
2022/10/16 05:37:38;;;;;;;2.83;1.88;;;;;;;16.21;63.38;101090.47;4962159;28;124343;-71
2022/10/16 05:40:06;;;;;;;3.22;1.90;;;;;;;16.20;63.54;101083.41;4945875;28;118781;-71
2022/10/16 05:42:33;;;;;;;3.58;1.88;;;;;;;16.20;63.71;101088.75;4965108;28;118741;-71
2022/10/16 05:45:00;;;;;;;4.05;2.00;;;;;;;16.19;63.49;101092.41;4964758;28;123536;-71
2022/10/16 05:47:27;;;;;;;4.15;1.75;;;;;;;16.18;63.50;101096.88;4948099;28;124276;-71
2022/10/16 05:49:55;;;;;;;4.28;1.90;;;;;;;16.18;63.71;101112.03;4965553;28;118942;-71
2022/10/16 05:52:22;;;;;;;2.83;1.80;;;;;;;16.18;63.59;101122.72;4964125;28;119017;-71
2022/10/16 05:54:49;;;;;;;4.70;1.90;;;;;;;16.18;63.58;101128.06;4964982;28;124168;-71
2022/10/16 05:57:16;;;;;;;5.05;2.05;;;;;;;16.17;63.69;101129.06;4964495;28;124437;-71
2022/10/16 05:59:43;;;;;;;2.38;1.73;;;;;;;16.17;63.60;101139.75;4963755;28;120200;-71
2022/10/16 06:02:12;;;;;;;3.75;2.10;;;;;;;16.17;63.62;101153.09;4960732;28;119704;-71
2022/10/16 06:04:40;;;;;;;3.38;1.90;;;;;;;16.17;63.53;101150.44;4964048;28;124006;-71
2022/10/16 06:07:07;;;;;;;3.58;2.08;;;;;;;16.15;63.78;101151.38;4945667;28;123627;-71
2022/10/16 06:09:34;;;;;;;4.50;2.08;;;;;;;16.15;63.65;101161.22;4965459;28;119318;-71
2022/10/16 06:12:01;;;;;;;4.78;2.25;;;;;;;16.14;63.66;101165.72;4947272;28;119987;-72
2022/10/16 06:14:28;;;;;;;2.90;1.98;;;;;;;16.13;63.73;101163.97;4965218;28;123989;-71
2022/10/16 06:16:55;;;;;;;4.38;2.15;;;;;;;16.15;63.82;101174.56;4963396;28;124176;-71
2022/10/16 06:19:22;;;;;;;4.25;2.35;;;;;;;16.13;63.74;101173.81;4965068;28;119647;-71
2022/10/16 06:21:49;;;;;;;6.55;2.25;;;;;;;16.13;63.90;101182.69;4965868;28;118418;-71
2022/10/16 06:24:17;;;;;;;5.07;2.03;;;;;;;16.12;63.70;101178.31;4964437;28;124362;-71
2022/10/16 06:26:44;;;;;;;7.07;1.85;;;;;;;16.12;63.91;101178.31;4965565;28;124688;-72
2022/10/16 06:29:10;;;;;;;2.85;2.08;;;;;;;16.12;63.73;101172.97;4944694;28;119421;-71
2022/10/16 06:31:38;;;;;;;3.33;1.92;;;;;;;16.13;63.81;101190.69;4965558;28;119110;-72
2022/10/16 06:34:09;;;;;;;4.38;2.10;;;;;;;16.13;63.79;101185.34;4950436;28;123795;-71
2022/10/16 06:36:36;;;;;;;5.13;2.00;;;;;;;16.13;63.69;101188.03;4963907;28;123937;-72
2022/10/16 06:39:05;;;;;;;5.05;1.75;;;;;;;16.11;63.74;101187.25;4950449;28;118160;-71
2022/10/16 06:41:32;;;;;;;4.88;2.20;;;;;;;16.12;63.95;101194.34;4968956;28;119031;-71
2022/10/16 06:44:09;;;;;;;3.65;2.15;;;;;;;16.11;63.90;101203.28;4933981;28;123111;-71
2022/10/16 06:46:36;;;;;;;4.90;2.40;;;;;;;16.11;64.02;101203.28;4967640;28;122540;-71
2022/10/16 06:49:04;;;;;;;4.60;2.30;;;;;;;16.13;64.02;101206.72;4950659;28;120771;-71
2022/10/16 06:51:33;;;;;;;4.88;2.33;;;;;;;16.14;63.96;101211.13;4962716;28;120522;-71
2022/10/16 06:54:05;;;;;;;2.88;2.22;;;;;;;16.17;64.02;101214.56;4952648;28;123926;-71
2022/10/16 06:56:33;;;;;;;3.05;2.30;;;;;;;16.18;64.14;101219.81;4962214;28;125030;-71
2022/10/16 06:59:01;;;;;;;3.90;2.25;;;;;;;16.19;64.18;101221.53;4983521;28;119152;-71
2022/10/16 07:01:28;;;;;;;4.72;2.28;;;;;;;16.22;64.14;101228.47;4980264;28;119162;-71
2022/10/16 07:03:56;;;;;;;5.03;2.33;;;;;;;16.24;64.36;101234.63;4960445;28;121845;-72
2022/10/16 07:06:25;;;;;;;4.22;2.20;;;;;;;16.27;64.25;101234.41;4976856;28;124915;-70
2022/10/16 07:08:52;;;;;;;3.10;2.13;;;;;;;16.32;64.21;101237.66;4963775;28;119272;-72
2022/10/16 07:11:22;;;;;;;4.93;2.20;;;;;;;16.35;64.29;101242.81;4947503;28;118805;-71
2022/10/16 07:13:50;;;;;;;4.60;2.38;;;;;;;16.38;64.26;101253.28;4965089;28;124220;-71
2022/10/16 07:16:28;;;;;;;5.00;2.20;;;;;;;16.42;64.36;101254.81;4962315;28;123853;-72
2022/10/16 07:18:59;;;;;;;3.70;2.20;;;;;;;16.45;64.23;101254.63;4965527;28;119552;-72
2022/10/16 07:21:30;;;;;;;4.07;2.20;;;;;;;16.49;64.40;101250.81;4967855;28;119828;-71
2022/10/16 07:24:00;;;;;;;3.63;2.20;;;;;;;16.53;64.26;101257.66;4967495;28;124055;-71
2022/10/16 07:26:30;;;;;;;6.82;2.50;;;;;;;16.58;64.36;101268.09;4967145;28;123750;-71
2022/10/16 07:28:58;;;;;;;6.30;2.33;;;;;;;16.64;64.25;101269.50;4950241;28;118896;-71
2022/10/16 07:31:25;;;;;;;5.35;2.47;;;;;;;16.69;64.32;101281.63;4950504;28;119447;-72
2022/10/16 07:33:52;;;;;;;4.70;2.15;;;;;;;16.74;64.28;101281.31;4964808;28;123701;-70
2022/10/16 07:36:20;;;;;;;4.20;2.17;;;;;;;16.78;64.25;101282.84;4967235;28;124500;-71
2022/10/16 07:38:47;;;;;;;4.90;2.20;;;;;;;16.82;64.19;101295.13;4966981;28;120117;-71
2022/10/16 07:41:17;;;;;;;5.63;2.50;;;;;;;16.87;64.10;101293.00;4947858;28;118656;-71
2022/10/16 07:43:51;;;;;;;7.30;2.53;;;;;;;16.91;64.10;101299.88;4966402;28;124507;-71
2022/10/16 07:46:20;;;;;;;4.38;2.40;;;;;;;16.95;64.00;101305.88;4964287;28;124186;-71
2022/10/16 07:48:47;;;;;;;5.95;2.38;;;;;;;17.00;63.67;101313.63;4946934;28;120214;-71
2022/10/16 07:51:18;;;;;;;5.00;2.10;;;;;;;17.04;63.96;101310.63;4966579;28;119083;-71
2022/10/16 07:53:46;;;;;;;4.57;2.20;;;;;;;17.08;63.82;101316.66;4965924;28;125370;-71
2022/10/16 07:56:15;;;;;;;4.80;2.10;;;;;;;17.11;63.59;101321.81;4949486;28;123713;-71
2022/10/16 07:58:42;;;;;;;5.00;2.40;;;;;;;17.15;63.73;101323.31;4949800;28;118715;-71
2022/10/16 08:01:13;;;;;;;3.17;2.05;;;;;;;17.19;63.72;101319.47;4949926;28;118245;-71
2022/10/16 08:03:44;;;;;;;3.15;2.00;;;;;;;17.23;63.75;101325.50;4965921;28;125491;-71
2022/10/16 08:06:12;;;;;;;6.55;2.10;;;;;;;17.29;63.57;101325.97;4972361;28;124165;-71
2022/10/16 08:08:39;;;;;;;4.35;2.22;;;;;;;17.32;63.65;101331.09;4976565;28;120355;-71
2022/10/16 08:11:06;;;;;;;4.25;2.05;;;;;;;17.39;63.52;101330.72;4974422;28;118852;-71
2022/10/16 08:13:33;;;;;;;4.13;2.00;;;;;;;17.44;63.65;101339.28;4967455;28;123414;-71
2022/10/16 08:16:01;;;;;;;4.28;1.88;;;;;;;17.49;63.35;101342.53;4966379;28;123986;-71
2022/10/16 08:18:28;;;;;;;7.63;1.95;;;;;;;17.55;63.38;101347.47;4933109;28;119242;-71
2022/10/16 08:20:57;;;;;;;2.42;1.42;;;;;;;17.60;63.32;101344.50;4967054;28;119467;-71
2022/10/16 08:23:25;;;;;;;4.53;1.65;;;;;;;17.65;63.37;101353.94;4948843;28;122909;-71
2022/10/16 08:26:04;;;;;;;3.65;1.77;;;;;;;17.70;63.29;101351.81;4965990;28;124015;-71
2022/10/16 08:28:31;;;;;;;4.53;1.90;;;;;;;17.77;63.17;101362.13;4966091;28;119172;-71
2022/10/16 08:31:14;;;;;;;5.07;1.98;;;;;;;17.82;63.17;101359.97;4949301;28;120755;-71
2022/10/16 08:33:44;;;;;;;4.13;1.90;;;;;;;17.89;62.92;101364.00;4949523;28;123221;-71
2022/10/16 08:36:11;;;;;;;4.00;1.70;;;;;;;17.96;62.82;101375.19;4963500;28;125972;-71
2022/10/16 08:38:38;;;;;;;3.47;1.70;;;;;;;18.03;62.83;101380.00;4965280;28;119840;-71
2022/10/16 08:41:46;;;;;;;3.88;1.73;;;;;;;18.10;62.57;101385.78;4948370;28;118441;-71
2022/10/16 08:44:26;;;;;;;6.88;1.88;;;;;;;18.17;62.60;101386.25;4960929;28;124748;-71
2022/10/16 08:47:17;;;;;;;3.05;1.50;;;;;;;18.23;62.37;101391.19;4943014;28;123593;-71
2022/10/16 08:49:56;;;;;;;3.83;1.85;;;;;;;18.30;62.21;101392.50;4946750;28;119001;-71
2022/10/16 08:52:28;;;;;;;2.92;1.58;;;;;;;18.37;61.95;101401.84;4949152;28;118102;-71
2022/10/16 08:54:56;;;;;;;7.35;1.90;;;;;;;18.43;61.89;101398.72;4962980;28;124049;-71
2022/10/16 08:57:26;;;;;;;5.75;1.92;;;;;;;18.52;61.83;101407.13;4966077;28;124517;-71
2022/10/16 08:59:59;;;;;;;3.55;1.70;;;;;;;18.60;61.75;101404.75;4947815;28;118705;-71
2022/10/16 09:02:45;;;;;;;4.30;1.98;;;;;;;18.67;61.69;101400.66;4933785;28;96914;-70
2022/10/16 09:05:43;;;;;;;5.30;2.00;;;;;;;18.75;61.71;101409.03;4964588;28;124432;-71
2022/10/16 09:08:50;;;;;;;5.20;1.70;;;;;;;18.84;61.63;101408.41;4931889;28;123154;-72
2022/10/16 09:11:36;;;;;;;6.35;1.80;;;;;;;18.93;61.42;101416.75;4961293;28;119652;-73
2022/10/16 09:14:20;;;;;;;6.43;1.80;;;;;;;19.02;61.23;101416.09;4964960;28;119328;-72
2022/10/16 09:16:57;;;;;;;2.95;1.70;;;;;;;19.11;60.95;101420.81;4962139;28;123998;-72
2022/10/16 09:19:37;;;;;;;4.18;1.85;;;;;;;19.21;61.00;101427.25;4963592;28;123765;-72
2022/10/16 09:22:14;;;;;;;5.90;1.83;;;;;;;19.34;60.83;101431.72;4962988;28;120768;-72
2022/10/16 09:24:41;;;;;;;5.53;2.10;;;;;;;19.43;60.68;101442.66;4953335;28;119731;-72
2022/10/16 09:27:14;;;;;;;4.32;1.60;;;;;;;19.50;60.15;101442.22;4966249;28;124980;-72
2022/10/16 09:29:41;;;;;;;6.05;1.80;;;;;;;19.52;59.92;101437.59;4946140;28;124403;-72
2022/10/16 09:32:28;;;;;;;3.92;1.90;;;;;;;19.53;59.75;101437.47;4966544;28;119269;-72
2022/10/16 09:34:57;;;;;;;2.63;1.52;;;;;;;19.57;59.67;101438.97;4957390;28;119375;-72
2022/10/16 09:37:25;;;;;;;4.40;1.55;;;;;;;19.65;59.71;101441.94;4948990;28;123996;-72
2022/10/16 09:39:54;;;;;;;4.88;1.80;;;;;;;19.72;59.60;101430.72;4963476;28;124537;-73
2022/10/16 09:42:31;;;;;;;5.57;2.08;;;;;;;19.77;59.47;101447.41;4966959;28;119281;-72
2022/10/16 09:44:58;;;;;;;6.97;1.95;;;;;;;19.83;59.00;101444.25;4934116;28;118970;-72
2022/10/16 09:47:30;;;;;;;4.53;1.70;;;;;;;19.87;58.69;101440.38;4965973;28;124186;-72
2022/10/16 09:50:01;;;;;;;7.32;1.90;;;;;;;19.90;58.71;101440.16;4965579;28;123869;-72
2022/10/16 09:52:30;;;;;;;7.78;1.80;;;;;;;19.96;58.74;101439.69;4963227;28;119370;-72
2022/10/16 09:55:12;;;;;;;5.93;1.77;;;;;;;20.03;58.28;101445.47;4946665;28;117714;-72
2022/10/16 09:58:13;;;;;;;6.93;2.00;;;;;;;20.11;58.39;101442.19;4947794;28;123648;-74
2022/10/16 10:00:42;;;;;;;6.75;1.65;;;;;;;20.18;58.08;101438.91;4880597;28;123590;-72
2022/10/16 10:03:11;;;;;;;3.72;1.50;;;;;;;20.26;57.80;101446.41;4963419;28;119323;-74
2022/10/16 10:05:39;;;;;;;4.63;1.55;;;;;;;20.34;57.63;101452.06;4965767;28;119025;-72
2022/10/16 10:08:07;;;;;;;4.72;1.60;;;;;;;20.41;57.38;101449.75;4952934;28;123259;-72
2022/10/16 10:10:41;;;;;;;7.55;1.55;;;;;;;20.47;57.13;101456.50;4949507;28;122877;-72
2022/10/16 10:13:24;;;;;;;6.53;1.70;;;;;;;20.54;57.11;101457.75;4964026;28;119995;-71
2022/10/16 10:15:51;;;;;;;6.78;1.75;;;;;;;20.61;56.88;101456.31;4966627;28;119773;-71
2022/10/16 10:18:21;;;;;;;6.57;1.85;;;;;;;20.66;56.55;101459.50;4968663;28;123699;-72
2022/10/16 10:20:59;;;;;;;5.88;1.95;;;;;;;20.70;56.41;101458.31;4968452;28;123783;-72
2022/10/16 10:23:29;;;;;;;8.60;1.83;;;;;;;20.75;55.98;101461.47;4968821;28;119377;-72
2022/10/16 10:26:08;;;;;;;6.55;1.80;;;;;;;20.77;55.96;101462.19;4968461;28;119228;-72
2022/10/16 10:29:01;;;;;;;8.63;1.90;;;;;;;20.84;56.07;101461.75;4965960;28;126428;-72
2022/10/16 10:31:56;;;;;;;7.47;2.17;;;;;;;20.87;55.81;101474.94;4969206;28;123626;-72
2022/10/16 10:34:39;;;;;;;7.60;1.70;;;;;;;20.90;55.71;101472.03;4964073;28;118953;-72
2022/10/16 10:37:34;;;;;;;6.90;1.70;;;;;;;20.93;55.63;101480.72;4950243;28;118813;-72
2022/10/16 10:40:15;;;;;;;7.63;2.03;;;;;;;20.97;55.33;101484.03;4963980;28;123545;-72
2022/10/16 10:43:04;;;;;;;7.15;1.70;;;;;;;20.98;55.01;101477.66;4965039;28;125041;-72
2022/10/16 10:45:43;;;;;;;8.25;1.83;;;;;;;20.96;54.75;101490.38;4963524;28;118623;-72
2022/10/16 10:48:24;;;;;;;8.90;1.55;;;;;;;20.95;54.83;101486.00;4950372;28;119109;-72
2022/10/16 10:50:57;;;;;;;8.02;1.90;;;;;;;20.95;54.52;101491.38;4949872;28;123795;-72
2022/10/16 10:53:39;;;;;;;10.57;2.08;;;;;;;20.96;54.09;101487.69;4963279;28;124247;-73
2022/10/16 10:56:22;;;;;;;7.05;1.80;;;;;;;20.97;54.30;101484.03;4961595;28;119006;-73
2022/10/16 10:59:04;;;;;;;5.55;1.55;;;;;;;21.00;54.29;101483.78;4966973;28;119310;-73
2022/10/16 11:01:37;;;;;;;8.35;1.88;;;;;;;21.04;53.95;101479.88;4949118;28;123554;-73
2022/10/16 11:04:38;;;;;;;9.25;1.83;;;;;;;21.09;54.08;101480.34;4966113;28;124230;-73
2022/10/16 11:07:12;;;;;;;6.30;1.67;;;;;;;21.15;53.86;101477.19;4965389;28;120637;-73
2022/10/16 11:09:47;;;;;;;6.65;2.03;;;;;;;21.21;53.62;101481.22;4950251;28;119153;-74
2022/10/16 11:12:20;;;;;;;8.68;1.70;;;;;;;21.27;53.24;101496.06;4962013;28;124072;-73
2022/10/16 11:15:03;;;;;;;9.73;1.80;;;;;;;21.30;52.95;101490.41;4965071;28;124138;-73
2022/10/16 11:17:39;;;;;;;8.23;1.90;;;;;;;21.35;53.20;101490.88;4949813;28;118535;-74
2022/10/16 11:20:21;;;;;;;7.75;1.90;;;;;;;21.43;53.29;101499.19;4949951;28;118010;-73
2022/10/16 11:22:56;;;;;;;10.45;1.70;;;;;;;21.51;53.08;101488.72;4964905;28;124819;-73
2022/10/16 11:25:27;;;;;;;7.60;1.80;;;;;;;21.62;52.83;101495.06;4968332;28;124185;-73
2022/10/16 11:28:03;;;;;;;6.72;1.70;;;;;;;21.68;52.27;101500.81;4963825;28;119776;-73
2022/10/16 11:30:38;;;;;;;9.93;1.90;;;;;;;21.73;51.55;101495.88;4965390;28;118915;-73
2022/10/16 11:33:08;;;;;;;11.13;2.00;;;;;;;21.78;51.38;101495.53;4947921;28;122211;-73
2022/10/16 11:35:50;;;;;;;10.90;1.80;;;;;;;21.82;51.10;101499.69;4967598;28;124600;-74
2022/10/16 11:39:00;;;;;;;7.28;1.80;;;;;;;21.83;51.20;101496.00;4963098;28;118951;-73